sensor_id;sensor_type;location;lat;lon;timestamp;temperature;humidity
27188;DHT22;14708;50.872;5.306;2023-08-07T00:02:11;22.30;64.00
27188;DHT22;14708;50.872;5.306;2023-08-07T00:04:36;22.30;64.00
27188;DHT22;14708;50.872;5.306;2023-08-07T00:07:02;22.30;64.20
27188;DHT22;14708;50.872;5.306;2023-08-07T00:09:28;22.30;64.20
27188;DHT22;14708;50.872;5.306;2023-08-07T00:11:53;22.30;64.20
27188;DHT22;14708;50.872;5.306;2023-08-07T00:14:19;22.30;64.20
27188;DHT22;14708;50.872;5.306;2023-08-07T00:16:45;22.30;64.10
27188;DHT22;14708;50.872;5.306;2023-08-07T00:19:11;22.20;64.20
27188;DHT22;14708;50.872;5.306;2023-08-07T00:21:36;22.20;64.30
27188;DHT22;14708;50.872;5.306;2023-08-07T00:24:03;22.30;64.30
27188;DHT22;14708;50.872;5.306;2023-08-07T00:26:29;22.20;64.20
27188;DHT22;14708;50.872;5.306;2023-08-07T00:28:55;22.20;64.40
27188;DHT22;14708;50.872;5.306;2023-08-07T00:31:21;22.20;64.30
27188;DHT22;14708;50.872;5.306;2023-08-07T00:33:47;22.20;64.20
27188;DHT22;14708;50.872;5.306;2023-08-07T00:36:17;22.20;64.30
27188;DHT22;14708;50.872;5.306;2023-08-07T00:38:42;22.20;64.20
27188;DHT22;14708;50.872;5.306;2023-08-07T00:41:08;22.20;64.10
27188;DHT22;14708;50.872;5.306;2023-08-07T00:43:35;22.20;64.50
27188;DHT22;14708;50.872;5.306;2023-08-07T00:46:01;22.20;64.40
27188;DHT22;14708;50.872;5.306;2023-08-07T00:48:28;22.20;64.30
27188;DHT22;14708;50.872;5.306;2023-08-07T00:50:54;22.20;64.30
27188;DHT22;14708;50.872;5.306;2023-08-07T00:53:20;22.20;64.20
27188;DHT22;14708;50.872;5.306;2023-08-07T00:55:46;22.10;64.30
27188;DHT22;14708;50.872;5.306;2023-08-07T00:58:12;22.10;64.30
27188;DHT22;14708;50.872;5.306;2023-08-07T01:00:38;22.10;64.30
27188;DHT22;14708;50.872;5.306;2023-08-07T01:03:06;22.10;64.30
27188;DHT22;14708;50.872;5.306;2023-08-07T01:05:32;22.10;64.20
27188;DHT22;14708;50.872;5.306;2023-08-07T01:07:58;22.10;64.20
27188;DHT22;14708;50.872;5.306;2023-08-07T01:14:08;22.10;64.30
27188;DHT22;14708;50.872;5.306;2023-08-07T01:17:12;22.10;64.30
27188;DHT22;14708;50.872;5.306;2023-08-07T01:19:41;22.10;64.40
27188;DHT22;14708;50.872;5.306;2023-08-07T01:22:14;22.10;64.40
27188;DHT22;14708;50.872;5.306;2023-08-07T01:24:45;22.10;64.20
27188;DHT22;14708;50.872;5.306;2023-08-07T01:30:15;22.10;64.20
27188;DHT22;14708;50.872;5.306;2023-08-07T01:35:38;22.10;64.20
27188;DHT22;14708;50.872;5.306;2023-08-07T01:38:07;22.10;64.50
27188;DHT22;14708;50.872;5.306;2023-08-07T01:40:34;22.00;64.30
27188;DHT22;14708;50.872;5.306;2023-08-07T01:43:01;22.00;64.20
27188;DHT22;14708;50.872;5.306;2023-08-07T01:45:28;22.00;64.50
27188;DHT22;14708;50.872;5.306;2023-08-07T01:47:54;22.00;64.30
27188;DHT22;14708;50.872;5.306;2023-08-07T01:50:20;22.00;64.40
27188;DHT22;14708;50.872;5.306;2023-08-07T01:52:46;22.00;64.20
27188;DHT22;14708;50.872;5.306;2023-08-07T01:55:13;22.00;64.10
27188;DHT22;14708;50.872;5.306;2023-08-07T01:57:39;22.00;64.20
27188;DHT22;14708;50.872;5.306;2023-08-07T02:00:05;22.00;64.20
27188;DHT22;14708;50.872;5.306;2023-08-07T02:02:31;22.00;64.30
27188;DHT22;14708;50.872;5.306;2023-08-07T02:04:57;22.00;64.30
27188;DHT22;14708;50.872;5.306;2023-08-07T02:07:22;22.00;64.40
27188;DHT22;14708;50.872;5.306;2023-08-07T02:09:48;22.00;64.60
27188;DHT22;14708;50.872;5.306;2023-08-07T02:12:14;22.00;64.50
27188;DHT22;14708;50.872;5.306;2023-08-07T02:14:39;21.90;64.40
27188;DHT22;14708;50.872;5.306;2023-08-07T02:17:05;22.00;64.30
27188;DHT22;14708;50.872;5.306;2023-08-07T02:19:30;22.00;64.50
27188;DHT22;14708;50.872;5.306;2023-08-07T02:21:57;21.90;64.20
27188;DHT22;14708;50.872;5.306;2023-08-07T02:24:23;21.90;64.40
27188;DHT22;14708;50.872;5.306;2023-08-07T02:26:48;21.90;64.20
27188;DHT22;14708;50.872;5.306;2023-08-07T02:29:14;21.90;64.10
27188;DHT22;14708;50.872;5.306;2023-08-07T02:31:39;21.90;64.10
27188;DHT22;14708;50.872;5.306;2023-08-07T02:34:05;21.90;64.30
27188;DHT22;14708;50.872;5.306;2023-08-07T02:36:31;21.90;64.30
27188;DHT22;14708;50.872;5.306;2023-08-07T02:38:56;21.90;64.20
27188;DHT22;14708;50.872;5.306;2023-08-07T02:41:22;21.90;64.10
27188;DHT22;14708;50.872;5.306;2023-08-07T02:43:47;21.90;64.10
27188;DHT22;14708;50.872;5.306;2023-08-07T02:46:13;21.90;64.10
27188;DHT22;14708;50.872;5.306;2023-08-07T02:48:39;21.90;64.20
27188;DHT22;14708;50.872;5.306;2023-08-07T02:51:05;21.90;63.90
27188;DHT22;14708;50.872;5.306;2023-08-07T02:53:31;21.90;64.10
27188;DHT22;14708;50.872;5.306;2023-08-07T02:55:57;21.90;63.90
27188;DHT22;14708;50.872;5.306;2023-08-07T02:58:22;21.90;64.20
27188;DHT22;14708;50.872;5.306;2023-08-07T03:00:48;21.90;64.00
27188;DHT22;14708;50.872;5.306;2023-08-07T03:03:14;21.90;64.00
27188;DHT22;14708;50.872;5.306;2023-08-07T03:05:48;21.90;64.00
27188;DHT22;14708;50.872;5.306;2023-08-07T03:08:14;21.90;64.70
27188;DHT22;14708;50.872;5.306;2023-08-07T03:10:39;21.90;64.00
27188;DHT22;14708;50.872;5.306;2023-08-07T03:13:05;21.80;64.00
27188;DHT22;14708;50.872;5.306;2023-08-07T03:15:31;21.80;64.00
27188;DHT22;14708;50.872;5.306;2023-08-07T03:17:56;21.80;63.90
27188;DHT22;14708;50.872;5.306;2023-08-07T03:20:22;21.90;64.20
27188;DHT22;14708;50.872;5.306;2023-08-07T03:22:47;21.80;64.10
27188;DHT22;14708;50.872;5.306;2023-08-07T03:25:13;21.90;64.10
27188;DHT22;14708;50.872;5.306;2023-08-07T03:27:39;21.80;64.10
27188;DHT22;14708;50.872;5.306;2023-08-07T03:30:05;21.80;64.00
27188;DHT22;14708;50.872;5.306;2023-08-07T03:32:30;21.80;64.00
27188;DHT22;14708;50.872;5.306;2023-08-07T03:34:56;21.80;64.10
27188;DHT22;14708;50.872;5.306;2023-08-07T03:37:22;21.80;64.10
27188;DHT22;14708;50.872;5.306;2023-08-07T03:39:47;21.80;64.10
27188;DHT22;14708;50.872;5.306;2023-08-07T03:42:14;21.80;64.00
27188;DHT22;14708;50.872;5.306;2023-08-07T03:44:41;21.80;64.00
27188;DHT22;14708;50.872;5.306;2023-08-07T03:47:06;21.80;64.10
27188;DHT22;14708;50.872;5.306;2023-08-07T03:49:32;21.80;64.10
27188;DHT22;14708;50.872;5.306;2023-08-07T03:51:58;21.80;64.00
27188;DHT22;14708;50.872;5.306;2023-08-07T03:54:24;21.80;64.20
27188;DHT22;14708;50.872;5.306;2023-08-07T03:56:50;21.80;64.20
27188;DHT22;14708;50.872;5.306;2023-08-07T03:59:17;21.80;64.00
27188;DHT22;14708;50.872;5.306;2023-08-07T04:01:43;21.80;64.00
27188;DHT22;14708;50.872;5.306;2023-08-07T04:04:09;21.80;63.90
27188;DHT22;14708;50.872;5.306;2023-08-07T04:06:34;21.80;64.10
27188;DHT22;14708;50.872;5.306;2023-08-07T04:09:00;21.80;64.10
27188;DHT22;14708;50.872;5.306;2023-08-07T04:11:26;21.80;64.10
27188;DHT22;14708;50.872;5.306;2023-08-07T04:13:52;21.80;64.10
27188;DHT22;14708;50.872;5.306;2023-08-07T04:16:18;21.80;64.90
27188;DHT22;14708;50.872;5.306;2023-08-07T04:18:43;21.80;64.00
27188;DHT22;14708;50.872;5.306;2023-08-07T04:21:09;21.80;64.00
27188;DHT22;14708;50.872;5.306;2023-08-07T04:23:35;21.80;64.00
27188;DHT22;14708;50.872;5.306;2023-08-07T04:26:01;21.80;64.10
27188;DHT22;14708;50.872;5.306;2023-08-07T04:28:30;21.80;64.00
27188;DHT22;14708;50.872;5.306;2023-08-07T04:30:55;21.80;64.10
27188;DHT22;14708;50.872;5.306;2023-08-07T04:33:21;21.80;64.00
27188;DHT22;14708;50.872;5.306;2023-08-07T04:35:47;21.70;64.10
27188;DHT22;14708;50.872;5.306;2023-08-07T04:38:14;21.80;64.10
27188;DHT22;14708;50.872;5.306;2023-08-07T04:40:50;21.70;64.10
27188;DHT22;14708;50.872;5.306;2023-08-07T04:43:16;21.70;64.00
27188;DHT22;14708;50.872;5.306;2023-08-07T04:45:42;21.70;63.90
27188;DHT22;14708;50.872;5.306;2023-08-07T04:48:10;21.70;63.90
27188;DHT22;14708;50.872;5.306;2023-08-07T04:50:37;21.70;64.00
27188;DHT22;14708;50.872;5.306;2023-08-07T04:53:04;21.70;64.00
27188;DHT22;14708;50.872;5.306;2023-08-07T04:55:30;21.70;64.50
27188;DHT22;14708;50.872;5.306;2023-08-07T04:57:56;21.70;64.00
27188;DHT22;14708;50.872;5.306;2023-08-07T05:00:22;21.70;63.90
27188;DHT22;14708;50.872;5.306;2023-08-07T05:02:48;21.70;63.90
27188;DHT22;14708;50.872;5.306;2023-08-07T05:05:14;21.70;63.90
27188;DHT22;14708;50.872;5.306;2023-08-07T05:07:41;21.70;64.00
27188;DHT22;14708;50.872;5.306;2023-08-07T05:10:07;21.70;64.00
27188;DHT22;14708;50.872;5.306;2023-08-07T05:12:33;21.70;64.20
27188;DHT22;14708;50.872;5.306;2023-08-07T05:14:58;21.70;64.10
27188;DHT22;14708;50.872;5.306;2023-08-07T05:17:24;21.70;63.90
27188;DHT22;14708;50.872;5.306;2023-08-07T05:19:50;21.70;64.00
27188;DHT22;14708;50.872;5.306;2023-08-07T05:22:15;21.70;64.00
27188;DHT22;14708;50.872;5.306;2023-08-07T05:24:41;21.70;64.00
27188;DHT22;14708;50.872;5.306;2023-08-07T05:27:10;21.70;63.90
27188;DHT22;14708;50.872;5.306;2023-08-07T05:29:36;21.70;64.10
27188;DHT22;14708;50.872;5.306;2023-08-07T05:32:09;21.70;64.10
27188;DHT22;14708;50.872;5.306;2023-08-07T05:34:35;21.60;64.00
27188;DHT22;14708;50.872;5.306;2023-08-07T05:37:01;21.60;64.00
27188;DHT22;14708;50.872;5.306;2023-08-07T05:39:26;21.70;64.20
27188;DHT22;14708;50.872;5.306;2023-08-07T05:41:52;21.70;64.10
27188;DHT22;14708;50.872;5.306;2023-08-07T05:44:20;21.60;64.00
27188;DHT22;14708;50.872;5.306;2023-08-07T05:46:45;21.60;64.00
27188;DHT22;14708;50.872;5.306;2023-08-07T05:49:11;21.60;64.20
27188;DHT22;14708;50.872;5.306;2023-08-07T05:51:38;21.60;64.20
27188;DHT22;14708;50.872;5.306;2023-08-07T05:54:03;21.60;64.20
27188;DHT22;14708;50.872;5.306;2023-08-07T05:56:29;21.70;64.10
27188;DHT22;14708;50.872;5.306;2023-08-07T05:58:54;21.70;64.30
27188;DHT22;14708;50.872;5.306;2023-08-07T06:01:20;21.70;64.20
27188;DHT22;14708;50.872;5.306;2023-08-07T06:03:46;21.70;64.10
27188;DHT22;14708;50.872;5.306;2023-08-07T06:06:12;21.70;64.30
27188;DHT22;14708;50.872;5.306;2023-08-07T06:08:37;21.70;64.20
27188;DHT22;14708;50.872;5.306;2023-08-07T06:11:03;21.70;64.70
27188;DHT22;14708;50.872;5.306;2023-08-07T06:13:31;21.70;64.10
27188;DHT22;14708;50.872;5.306;2023-08-07T06:15:56;21.70;63.90
27188;DHT22;14708;50.872;5.306;2023-08-07T06:18:22;21.70;63.80
27188;DHT22;14708;50.872;5.306;2023-08-07T06:20:47;21.70;63.80
27188;DHT22;14708;50.872;5.306;2023-08-07T06:23:13;21.70;64.00
27188;DHT22;14708;50.872;5.306;2023-08-07T06:25:39;21.70;64.20
27188;DHT22;14708;50.872;5.306;2023-08-07T06:28:04;21.60;63.90
27188;DHT22;14708;50.872;5.306;2023-08-07T06:30:33;21.60;64.10
27188;DHT22;14708;50.872;5.306;2023-08-07T06:32:59;21.70;64.10
27188;DHT22;14708;50.872;5.306;2023-08-07T06:35:24;21.60;64.00
27188;DHT22;14708;50.872;5.306;2023-08-07T06:37:50;21.60;64.00
27188;DHT22;14708;50.872;5.306;2023-08-07T06:40:16;21.60;64.10
27188;DHT22;14708;50.872;5.306;2023-08-07T06:42:41;21.60;64.10
27188;DHT22;14708;50.872;5.306;2023-08-07T06:45:07;21.60;64.10
27188;DHT22;14708;50.872;5.306;2023-08-07T06:47:33;21.60;64.10
27188;DHT22;14708;50.872;5.306;2023-08-07T06:49:58;21.50;63.10
27188;DHT22;14708;50.872;5.306;2023-08-07T06:52:24;21.50;62.40
27188;DHT22;14708;50.872;5.306;2023-08-07T06:54:50;21.60;62.80
27188;DHT22;14708;50.872;5.306;2023-08-07T06:57:15;21.50;61.90
27188;DHT22;14708;50.872;5.306;2023-08-07T06:59:41;21.50;62.30
27188;DHT22;14708;50.872;5.306;2023-08-07T07:02:07;21.40;62.30
27188;DHT22;14708;50.872;5.306;2023-08-07T07:04:32;21.50;62.50
27188;DHT22;14708;50.872;5.306;2023-08-07T07:06:58;21.50;62.30
27188;DHT22;14708;50.872;5.306;2023-08-07T07:09:24;21.50;63.50
27188;DHT22;14708;50.872;5.306;2023-08-07T07:11:50;21.60;63.30
27188;DHT22;14708;50.872;5.306;2023-08-07T07:14:15;21.70;63.00
27188;DHT22;14708;50.872;5.306;2023-08-07T07:16:41;21.70;62.60
27188;DHT22;14708;50.872;5.306;2023-08-07T07:19:07;21.70;63.00
27188;DHT22;14708;50.872;5.306;2023-08-07T07:21:35;21.70;63.10
27188;DHT22;14708;50.872;5.306;2023-08-07T07:24:02;21.70;63.20
27188;DHT22;14708;50.872;5.306;2023-08-07T07:26:27;21.70;63.20
27188;DHT22;14708;50.872;5.306;2023-08-07T07:28:53;21.70;63.30
27188;DHT22;14708;50.872;5.306;2023-08-07T07:31:19;21.70;63.40
27188;DHT22;14708;50.872;5.306;2023-08-07T07:33:44;21.60;63.30
27188;DHT22;14708;50.872;5.306;2023-08-07T07:36:17;21.60;63.20
27188;DHT22;14708;50.872;5.306;2023-08-07T07:38:47;21.70;63.40
27188;DHT22;14708;50.872;5.306;2023-08-07T07:41:16;21.60;63.40
27188;DHT22;14708;50.872;5.306;2023-08-07T07:43:41;21.60;63.20
27188;DHT22;14708;50.872;5.306;2023-08-07T07:46:07;21.60;63.30
27188;DHT22;14708;50.872;5.306;2023-08-07T07:48:33;21.60;63.10
27188;DHT22;14708;50.872;5.306;2023-08-07T07:51:03;21.70;63.00
27188;DHT22;14708;50.872;5.306;2023-08-07T07:53:28;21.70;63.20
27188;DHT22;14708;50.872;5.306;2023-08-07T07:55:54;21.70;63.20
27188;DHT22;14708;50.872;5.306;2023-08-07T07:58:20;21.60;63.00
27188;DHT22;14708;50.872;5.306;2023-08-07T08:00:46;21.70;62.80
27188;DHT22;14708;50.872;5.306;2023-08-07T08:03:12;21.70;63.00
27188;DHT22;14708;50.872;5.306;2023-08-07T08:05:38;21.70;63.10
27188;DHT22;14708;50.872;5.306;2023-08-07T08:08:05;21.60;63.30
27188;DHT22;14708;50.872;5.306;2023-08-07T08:10:31;21.60;63.50
27188;DHT22;14708;50.872;5.306;2023-08-07T08:12:56;21.60;63.50
27188;DHT22;14708;50.872;5.306;2023-08-07T08:15:22;21.60;63.20
27188;DHT22;14708;50.872;5.306;2023-08-07T08:17:48;21.70;63.40
27188;DHT22;14708;50.872;5.306;2023-08-07T08:20:14;21.70;63.30
27188;DHT22;14708;50.872;5.306;2023-08-07T08:22:42;21.70;63.00
27188;DHT22;14708;50.872;5.306;2023-08-07T08:25:08;21.70;62.80
27188;DHT22;14708;50.872;5.306;2023-08-07T08:27:35;21.70;62.50
27188;DHT22;14708;50.872;5.306;2023-08-07T08:30:01;21.70;62.00
27188;DHT22;14708;50.872;5.306;2023-08-07T08:32:27;21.70;61.90
27188;DHT22;14708;50.872;5.306;2023-08-07T08:34:52;21.60;61.70
27188;DHT22;14708;50.872;5.306;2023-08-07T08:37:18;21.60;61.70
27188;DHT22;14708;50.872;5.306;2023-08-07T08:39:44;21.70;61.60
27188;DHT22;14708;50.872;5.306;2023-08-07T08:42:11;21.70;61.50
27188;DHT22;14708;50.872;5.306;2023-08-07T08:44:40;21.70;61.40
27188;DHT22;14708;50.872;5.306;2023-08-07T08:47:07;21.70;61.20
27188;DHT22;14708;50.872;5.306;2023-08-07T08:49:43;21.70;60.90
27188;DHT22;14708;50.872;5.306;2023-08-07T08:52:10;21.70;61.00
27188;DHT22;14708;50.872;5.306;2023-08-07T08:54:36;21.80;60.70
27188;DHT22;14708;50.872;5.306;2023-08-07T08:57:03;21.70;60.80
27188;DHT22;14708;50.872;5.306;2023-08-07T08:59:29;21.80;60.70
27188;DHT22;14708;50.872;5.306;2023-08-07T09:01:56;21.80;60.30
27188;DHT22;14708;50.872;5.306;2023-08-07T09:04:21;21.80;60.40
27188;DHT22;14708;50.872;5.306;2023-08-07T09:06:47;21.80;60.50
27188;DHT22;14708;50.872;5.306;2023-08-07T09:09:14;21.90;60.30
27188;DHT22;14708;50.872;5.306;2023-08-07T09:16:51;21.90;58.70
27188;DHT22;14708;50.872;5.306;2023-08-07T09:19:17;21.90;58.40
27188;DHT22;14708;50.872;5.306;2023-08-07T09:21:42;21.90;59.10
27188;DHT22;14708;50.872;5.306;2023-08-07T09:24:08;21.90;59.50
27188;DHT22;14708;50.872;5.306;2023-08-07T09:26:35;21.80;59.30
27188;DHT22;14708;50.872;5.306;2023-08-07T09:29:01;21.80;59.10
27188;DHT22;14708;50.872;5.306;2023-08-07T09:31:27;21.80;59.10
27188;DHT22;14708;50.872;5.306;2023-08-07T09:34:01;21.80;59.40
27188;DHT22;14708;50.872;5.306;2023-08-07T09:36:33;21.90;58.80
27188;DHT22;14708;50.872;5.306;2023-08-07T09:39:02;21.90;59.10
27188;DHT22;14708;50.872;5.306;2023-08-07T09:41:28;21.90;58.40
27188;DHT22;14708;50.872;5.306;2023-08-07T09:43:54;21.90;58.00
27188;DHT22;14708;50.872;5.306;2023-08-07T09:46:20;21.90;58.30
27188;DHT22;14708;50.872;5.306;2023-08-07T09:48:47;22.00;58.40
27188;DHT22;14708;50.872;5.306;2023-08-07T09:51:13;22.00;58.40
27188;DHT22;14708;50.872;5.306;2023-08-07T09:53:38;22.10;57.80
27188;DHT22;14708;50.872;5.306;2023-08-07T09:56:04;22.10;58.30
27188;DHT22;14708;50.872;5.306;2023-08-07T09:58:31;22.00;58.70
27188;DHT22;14708;50.872;5.306;2023-08-07T10:01:07;22.00;58.70
27188;DHT22;14708;50.872;5.306;2023-08-07T10:03:35;21.90;58.80
27188;DHT22;14708;50.872;5.306;2023-08-07T10:06:01;21.90;58.40
27188;DHT22;14708;50.872;5.306;2023-08-07T10:08:28;21.80;58.30
27188;DHT22;14708;50.872;5.306;2023-08-07T10:10:54;21.80;58.10
27188;DHT22;14708;50.872;5.306;2023-08-07T10:13:19;21.80;58.20
27188;DHT22;14708;50.872;5.306;2023-08-07T10:15:47;21.80;57.90
27188;DHT22;14708;50.872;5.306;2023-08-07T10:18:14;21.80;58.00
27188;DHT22;14708;50.872;5.306;2023-08-07T10:20:39;21.80;57.90
27188;DHT22;14708;50.872;5.306;2023-08-07T10:23:09;21.80;57.80
27188;DHT22;14708;50.872;5.306;2023-08-07T10:25:37;21.80;57.80
27188;DHT22;14708;50.872;5.306;2023-08-07T10:28:08;21.80;57.60
27188;DHT22;14708;50.872;5.306;2023-08-07T10:30:35;21.80;57.70
27188;DHT22;14708;50.872;5.306;2023-08-07T10:33:03;21.90;57.50
27188;DHT22;14708;50.872;5.306;2023-08-07T10:35:33;21.80;57.70
27188;DHT22;14708;50.872;5.306;2023-08-07T10:38:07;21.80;57.50
27188;DHT22;14708;50.872;5.306;2023-08-07T10:40:34;21.90;58.90
27188;DHT22;14708;50.872;5.306;2023-08-07T10:43:11;22.00;58.10
27188;DHT22;14708;50.872;5.306;2023-08-07T10:45:37;22.00;58.80
27188;DHT22;14708;50.872;5.306;2023-08-07T10:48:14;22.00;58.60
27188;DHT22;14708;50.872;5.306;2023-08-07T10:53:31;22.00;61.00
27188;DHT22;14708;50.872;5.306;2023-08-07T10:55:58;21.90;59.00
27188;DHT22;14708;50.872;5.306;2023-08-07T10:58:30;22.00;54.80
27188;DHT22;14708;50.872;5.306;2023-08-07T11:03:48;21.90;54.10
27188;DHT22;14708;50.872;5.306;2023-08-07T11:06:22;21.90;51.30
27188;DHT22;14708;50.872;5.306;2023-08-07T11:08:49;21.90;50.30
27188;DHT22;14708;50.872;5.306;2023-08-07T11:11:15;21.90;50.20
27188;DHT22;14708;50.872;5.306;2023-08-07T11:13:41;21.80;50.90
27188;DHT22;14708;50.872;5.306;2023-08-07T11:16:07;21.70;51.60
27188;DHT22;14708;50.872;5.306;2023-08-07T11:18:34;21.80;53.30
27188;DHT22;14708;50.872;5.306;2023-08-07T11:21:01;21.70;53.90
27188;DHT22;14708;50.872;5.306;2023-08-07T11:23:27;21.70;54.60
27188;DHT22;14708;50.872;5.306;2023-08-07T11:25:54;21.70;54.50
27188;DHT22;14708;50.872;5.306;2023-08-07T11:28:20;21.60;55.00
27188;DHT22;14708;50.872;5.306;2023-08-07T11:30:49;21.60;54.80
27188;DHT22;14708;50.872;5.306;2023-08-07T11:33:17;21.60;55.00
27188;DHT22;14708;50.872;5.306;2023-08-07T11:35:42;21.60;55.10
27188;DHT22;14708;50.872;5.306;2023-08-07T11:38:08;21.60;55.00
27188;DHT22;14708;50.872;5.306;2023-08-07T11:40:34;21.60;55.20
27188;DHT22;14708;50.872;5.306;2023-08-07T11:43:01;21.60;55.10
27188;DHT22;14708;50.872;5.306;2023-08-07T11:45:26;21.60;55.20
27188;DHT22;14708;50.872;5.306;2023-08-07T11:47:52;21.60;55.10
27188;DHT22;14708;50.872;5.306;2023-08-07T11:50:21;21.60;55.30
27188;DHT22;14708;50.872;5.306;2023-08-07T11:52:48;21.60;55.10
27188;DHT22;14708;50.872;5.306;2023-08-07T11:55:17;21.60;55.20
27188;DHT22;14708;50.872;5.306;2023-08-07T11:57:46;21.70;55.40
27188;DHT22;14708;50.872;5.306;2023-08-07T12:00:12;21.70;55.50
27188;DHT22;14708;50.872;5.306;2023-08-07T12:02:44;21.60;55.50
27188;DHT22;14708;50.872;5.306;2023-08-07T12:05:12;21.60;55.60
27188;DHT22;14708;50.872;5.306;2023-08-07T12:07:38;21.60;55.40
27188;DHT22;14708;50.872;5.306;2023-08-07T12:10:09;21.70;54.90
27188;DHT22;14708;50.872;5.306;2023-08-07T12:12:38;21.80;55.10
27188;DHT22;14708;50.872;5.306;2023-08-07T12:15:08;21.80;54.90
27188;DHT22;14708;50.872;5.306;2023-08-07T12:17:34;21.70;55.20
27188;DHT22;14708;50.872;5.306;2023-08-07T12:20:00;21.70;55.00
27188;DHT22;14708;50.872;5.306;2023-08-07T12:22:28;21.70;55.20
27188;DHT22;14708;50.872;5.306;2023-08-07T12:24:54;21.70;55.20
27188;DHT22;14708;50.872;5.306;2023-08-07T12:27:20;21.60;55.20
27188;DHT22;14708;50.872;5.306;2023-08-07T12:29:46;21.70;55.30
27188;DHT22;14708;50.872;5.306;2023-08-07T12:32:12;21.70;55.10
27188;DHT22;14708;50.872;5.306;2023-08-07T12:34:43;21.70;54.80
27188;DHT22;14708;50.872;5.306;2023-08-07T12:37:08;21.80;54.50
27188;DHT22;14708;50.872;5.306;2023-08-07T12:39:34;21.80;54.70
27188;DHT22;14708;50.872;5.306;2023-08-07T12:42:00;21.80;54.60
27188;DHT22;14708;50.872;5.306;2023-08-07T12:44:28;21.80;54.40
27188;DHT22;14708;50.872;5.306;2023-08-07T12:46:56;21.80;54.80
27188;DHT22;14708;50.872;5.306;2023-08-07T12:49:26;21.70;55.00
27188;DHT22;14708;50.872;5.306;2023-08-07T12:51:52;21.70;55.20
27188;DHT22;14708;50.872;5.306;2023-08-07T12:54:19;21.70;55.20
27188;DHT22;14708;50.872;5.306;2023-08-07T12:56:44;21.70;55.10
27188;DHT22;14708;50.872;5.306;2023-08-07T12:59:12;21.70;55.10
27188;DHT22;14708;50.872;5.306;2023-08-07T13:01:38;21.70;55.00
27188;DHT22;14708;50.872;5.306;2023-08-07T13:04:16;21.70;55.10
27188;DHT22;14708;50.872;5.306;2023-08-07T13:06:45;21.70;55.00
27188;DHT22;14708;50.872;5.306;2023-08-07T13:09:11;21.70;55.10
27188;DHT22;14708;50.872;5.306;2023-08-07T13:11:36;21.70;55.00
27188;DHT22;14708;50.872;5.306;2023-08-07T13:14:07;21.70;54.90
27188;DHT22;14708;50.872;5.306;2023-08-07T13:16:36;21.70;54.90
27188;DHT22;14708;50.872;5.306;2023-08-07T13:19:01;21.70;54.80
27188;DHT22;14708;50.872;5.306;2023-08-07T13:21:27;21.80;54.60
27188;DHT22;14708;50.872;5.306;2023-08-07T13:23:53;21.80;54.60
27188;DHT22;14708;50.872;5.306;2023-08-07T13:26:19;21.80;54.70
27188;DHT22;14708;50.872;5.306;2023-08-07T13:28:53;21.80;54.80
27188;DHT22;14708;50.872;5.306;2023-08-07T13:31:21;21.80;54.80
27188;DHT22;14708;50.872;5.306;2023-08-07T13:34:00;21.80;54.80
27188;DHT22;14708;50.872;5.306;2023-08-07T13:36:52;21.70;54.40
27188;DHT22;14708;50.872;5.306;2023-08-07T13:39:17;21.80;54.70
27188;DHT22;14708;50.872;5.306;2023-08-07T13:41:43;21.80;54.70
27188;DHT22;14708;50.872;5.306;2023-08-07T13:44:09;21.80;55.00
27188;DHT22;14708;50.872;5.306;2023-08-07T13:46:36;21.80;55.30
27188;DHT22;14708;50.872;5.306;2023-08-07T13:49:02;21.80;55.30
27188;DHT22;14708;50.872;5.306;2023-08-07T13:51:29;21.80;55.40
27188;DHT22;14708;50.872;5.306;2023-08-07T13:53:54;21.70;55.40
27188;DHT22;14708;50.872;5.306;2023-08-07T13:56:20;21.80;55.30
27188;DHT22;14708;50.872;5.306;2023-08-07T14:01:42;21.80;54.70
27188;DHT22;14708;50.872;5.306;2023-08-07T14:04:11;21.80;54.80
27188;DHT22;14708;50.872;5.306;2023-08-07T14:06:41;21.80;54.70
27188;DHT22;14708;50.872;5.306;2023-08-07T14:09:21;21.80;54.60
27188;DHT22;14708;50.872;5.306;2023-08-07T14:11:48;21.80;54.30
27188;DHT22;14708;50.872;5.306;2023-08-07T14:14:14;21.90;54.30
27188;DHT22;14708;50.872;5.306;2023-08-07T14:16:42;21.90;54.50
27188;DHT22;14708;50.872;5.306;2023-08-07T14:22:50;21.90;54.30
27188;DHT22;14708;50.872;5.306;2023-08-07T14:25:19;21.90;54.30
27188;DHT22;14708;50.872;5.306;2023-08-07T14:27:48;21.90;54.20
27188;DHT22;14708;50.872;5.306;2023-08-07T14:30:14;22.00;54.40
27188;DHT22;14708;50.872;5.306;2023-08-07T14:32:40;22.10;54.50
27188;DHT22;14708;50.872;5.306;2023-08-07T14:35:06;22.00;54.40
27188;DHT22;14708;50.872;5.306;2023-08-07T14:37:39;22.00;54.50
27188;DHT22;14708;50.872;5.306;2023-08-07T14:40:08;22.00;54.80
27188;DHT22;14708;50.872;5.306;2023-08-07T14:42:41;21.90;55.00
27188;DHT22;14708;50.872;5.306;2023-08-07T14:45:08;22.00;55.20
27188;DHT22;14708;50.872;5.306;2023-08-07T14:47:34;21.90;55.40
27188;DHT22;14708;50.872;5.306;2023-08-07T14:49:59;22.00;55.90
27188;DHT22;14708;50.872;5.306;2023-08-07T14:52:25;21.90;55.90
27188;DHT22;14708;50.872;5.306;2023-08-07T14:54:51;22.10;55.90
27188;DHT22;14708;50.872;5.306;2023-08-07T14:57:20;22.10;56.00
27188;DHT22;14708;50.872;5.306;2023-08-07T14:59:45;22.00;55.80
27188;DHT22;14708;50.872;5.306;2023-08-07T15:02:11;22.00;55.90
27188;DHT22;14708;50.872;5.306;2023-08-07T15:04:38;21.90;56.00
27188;DHT22;14708;50.872;5.306;2023-08-07T15:07:04;22.00;55.70
27188;DHT22;14708;50.872;5.306;2023-08-07T15:09:30;21.90;55.70
27188;DHT22;14708;50.872;5.306;2023-08-07T15:11:56;22.00;56.10
27188;DHT22;14708;50.872;5.306;2023-08-07T15:14:21;22.00;56.20
27188;DHT22;14708;50.872;5.306;2023-08-07T15:16:47;22.10;56.30
27188;DHT22;14708;50.872;5.306;2023-08-07T15:19:14;22.10;56.10
27188;DHT22;14708;50.872;5.306;2023-08-07T15:21:40;22.10;56.20
27188;DHT22;14708;50.872;5.306;2023-08-07T15:24:08;22.10;56.10
27188;DHT22;14708;50.872;5.306;2023-08-07T15:26:34;22.10;56.40
27188;DHT22;14708;50.872;5.306;2023-08-07T15:29:00;22.20;56.40
27188;DHT22;14708;50.872;5.306;2023-08-07T15:31:25;22.20;56.40
27188;DHT22;14708;50.872;5.306;2023-08-07T15:33:51;22.10;56.70
27188;DHT22;14708;50.872;5.306;2023-08-07T15:36:18;22.10;56.70
27188;DHT22;14708;50.872;5.306;2023-08-07T15:38:44;22.00;56.90
27188;DHT22;14708;50.872;5.306;2023-08-07T15:41:13;22.00;57.10
27188;DHT22;14708;50.872;5.306;2023-08-07T15:43:39;22.00;57.20
27188;DHT22;14708;50.872;5.306;2023-08-07T15:46:04;22.00;57.20
27188;DHT22;14708;50.872;5.306;2023-08-07T15:48:30;22.00;57.40
27188;DHT22;14708;50.872;5.306;2023-08-07T15:50:56;22.00;57.20
27188;DHT22;14708;50.872;5.306;2023-08-07T15:53:22;22.00;57.20
27188;DHT22;14708;50.872;5.306;2023-08-07T15:55:49;22.00;57.30